createdAt,value
2018-03-20T00:00:16.180Z,32.50
2018-03-20T00:00:47.926Z,32.60
2018-03-20T00:01:19.664Z,32.50
2018-03-20T00:01:51.438Z,32.50
2018-03-20T00:02:23.207Z,32.40
2018-03-20T00:02:55.008Z,32.30
2018-03-20T00:03:26.741Z,32.40
2018-03-20T00:03:58.516Z,32.40
2018-03-20T00:04:30.278Z,32.30
2018-03-20T00:05:02.799Z,32.50
2018-03-20T00:05:34.540Z,32.50
2018-03-20T00:06:06.310Z,32.50
2018-03-20T00:06:38.088Z,32.40
2018-03-20T00:07:10.632Z,32.50
2018-03-20T00:07:43.161Z,32.60
2018-03-20T00:08:14.921Z,32.60
2018-03-20T00:08:46.684Z,32.60
2018-03-20T00:09:19.388Z,32.50
2018-03-20T00:09:51.876Z,32.50
2018-03-20T00:10:23.647Z,32.50
2018-03-20T00:10:55.384Z,32.70
2018-03-20T00:11:27.144Z,32.80
2018-03-20T00:11:59.711Z,32.60
2018-03-20T00:12:31.432Z,32.60
2018-03-20T00:13:03.212Z,32.70
2018-03-20T00:13:35.732Z,32.50
2018-03-20T00:14:07.500Z,32.50
2018-03-20T00:14:39.493Z,32.50
2018-03-20T00:15:11.244Z,32.50
2018-03-20T00:15:43.031Z,32.50
2018-03-20T00:16:14.784Z,32.40
2018-03-20T00:16:46.612Z,32.40
2018-03-20T00:17:18.337Z,33.00
2018-03-20T00:17:50.111Z,32.20
2018-03-20T00:18:21.861Z,32.40
2018-03-20T00:18:53.609Z,32.20
2018-03-20T00:19:25.358Z,32.80
2018-03-20T00:19:57.120Z,32.30
2018-03-20T00:20:29.686Z,32.60
2018-03-20T00:21:01.432Z,32.50
2018-03-20T00:21:33.177Z,32.40
2018-03-20T00:22:04.926Z,32.50
2018-03-20T00:22:36.666Z,32.50
2018-03-20T00:23:08.409Z,32.40
2018-03-20T00:23:40.215Z,32.20
2018-03-20T00:24:11.978Z,32.40
2018-03-20T00:24:43.696Z,32.30
2018-03-20T00:25:15.477Z,32.30
2018-03-20T00:25:47.997Z,32.40
2018-03-20T00:26:19.731Z,32.40
2018-03-20T00:26:51.475Z,32.30
2018-03-20T00:27:23.229Z,32.40
2018-03-20T00:27:54.981Z,32.40
2018-03-20T00:28:26.921Z,32.30
2018-03-20T00:28:58.678Z,32.50
2018-03-20T00:29:30.458Z,32.50
2018-03-20T00:30:02.214Z,32.30
2018-03-20T00:30:33.964Z,32.40
2018-03-20T00:31:05.700Z,32.30
2018-03-20T00:31:37.460Z,32.60
2018-03-20T00:32:09.196Z,32.50
2018-03-20T00:32:40.949Z,32.30
2018-03-20T00:33:12.693Z,32.40
2018-03-20T00:33:44.430Z,32.30
2018-03-20T00:34:16.173Z,32.40
2018-03-20T00:34:47.926Z,32.30
2018-03-20T00:35:19.668Z,32.40
2018-03-20T00:35:51.463Z,32.30
2018-03-20T00:36:23.195Z,32.30
2018-03-20T00:36:54.956Z,32.30
2018-03-20T00:37:27.570Z,32.40
2018-03-20T00:37:59.378Z,32.40
2018-03-20T00:38:31.894Z,32.30
2018-03-20T00:39:04.468Z,32.30
2018-03-20T00:39:36.593Z,32.20
2018-03-20T00:40:08.361Z,32.20
2018-03-20T00:40:40.104Z,32.20
2018-03-20T00:41:11.851Z,32.20
2018-03-20T00:41:43.602Z,32.30
2018-03-20T00:42:15.627Z,32.20
2018-03-20T00:42:47.389Z,32.20
2018-03-20T00:43:19.100Z,32.40
2018-03-20T00:43:51.624Z,32.20
2018-03-20T00:44:23.379Z,32.20
2018-03-20T00:44:55.952Z,32.30
2018-03-20T00:45:28.459Z,32.30
2018-03-20T00:46:00.204Z,32.30
2018-03-20T00:46:31.934Z,32.40
2018-03-20T00:47:03.717Z,32.30
2018-03-20T00:47:35.540Z,32.20
2018-03-20T00:48:07.299Z,32.20
2018-03-20T00:48:39.060Z,32.10
2018-03-20T00:49:10.848Z,32.10
2018-03-20T00:49:42.605Z,32.10
2018-03-20T00:50:14.370Z,32.20
2018-03-20T00:50:46.875Z,32.10
2018-03-20T00:51:18.619Z,32.10
2018-03-20T00:51:50.377Z,32.00
2018-03-20T00:52:22.138Z,32.00
2018-03-20T00:52:53.897Z,32.10
2018-03-20T00:53:25.632Z,32.30
2018-03-20T00:53:57.394Z,32.20
2018-03-20T00:54:29.961Z,32.30
2018-03-20T00:55:01.673Z,32.20
2018-03-20T00:55:33.432Z,32.10
2018-03-20T00:56:05.957Z,32.30
2018-03-20T00:56:37.707Z,32.30
2018-03-20T00:57:09.448Z,32.20
2018-03-20T00:57:41.209Z,32.20
2018-03-20T00:58:12.969Z,32.10
2018-03-20T00:58:44.724Z,32.10
2018-03-20T00:59:17.249Z,32.20
2018-03-20T00:59:49.004Z,32.10
2018-03-20T01:00:20.740Z,32.20
2018-03-20T01:00:52.497Z,32.10
2018-03-20T01:01:24.274Z,32.20
2018-03-20T01:01:55.993Z,32.10
2018-03-20T01:02:27.772Z,31.90
2018-03-20T01:03:00.324Z,32.20
2018-03-20T01:03:32.850Z,32.30
2018-03-20T01:04:04.639Z,32.30
2018-03-20T01:04:37.181Z,32.20
2018-03-20T01:05:08.957Z,32.20
2018-03-20T01:05:40.749Z,32.10
2018-03-20T01:06:12.561Z,32.10
2018-03-20T01:06:44.338Z,32.20
2018-03-20T01:07:16.080Z,32.10
2018-03-20T01:07:49.359Z,32.20
2018-03-20T01:08:21.104Z,32.10
2018-03-20T01:08:52.838Z,32.20
2018-03-20T01:09:24.590Z,32.20
2018-03-20T01:09:56.344Z,32.80
2018-03-20T01:10:28.086Z,32.80
2018-03-20T01:10:59.840Z,32.20
2018-03-20T01:11:31.612Z,32.20
2018-03-20T01:12:04.140Z,32.40
2018-03-20T01:12:35.892Z,32.30
2018-03-20T01:13:07.649Z,32.30
2018-03-20T01:13:39.410Z,32.20
2018-03-20T01:14:11.120Z,32.30
2018-03-20T01:14:42.864Z,32.30
2018-03-20T01:15:14.604Z,32.30
2018-03-20T01:15:47.156Z,32.80
2018-03-20T01:16:18.911Z,32.30
2018-03-20T01:16:50.964Z,32.20
2018-03-20T01:17:22.711Z,32.20
2018-03-20T01:17:54.461Z,32.10
2018-03-20T01:18:26.216Z,32.30
2018-03-20T01:18:57.969Z,32.30
2018-03-20T01:19:30.490Z,32.30
2018-03-20T01:20:02.440Z,32.30
2018-03-20T01:20:34.388Z,32.40
2018-03-20T01:21:06.126Z,32.40
2018-03-20T01:21:37.895Z,32.60
2018-03-20T01:22:09.628Z,32.50
2018-03-20T01:22:41.383Z,33.00
2018-03-20T01:23:13.181Z,33.00
2018-03-20T01:23:44.940Z,32.40
2018-03-20T01:24:16.682Z,32.40
2018-03-20T01:24:48.417Z,32.20
2018-03-20T01:25:20.165Z,32.40
2018-03-20T01:25:52.168Z,32.50
2018-03-20T01:26:23.904Z,32.60
2018-03-20T01:26:55.644Z,32.60
2018-03-20T01:27:27.417Z,32.70
2018-03-20T01:27:59.139Z,32.60
2018-03-20T01:28:30.880Z,32.60
2018-03-20T01:29:02.641Z,32.50
2018-03-20T01:29:34.384Z,32.50
2018-03-20T01:30:06.122Z,32.60
2018-03-20T01:30:39.376Z,32.60
2018-03-20T01:31:11.121Z,32.60
2018-03-20T01:31:42.881Z,32.50
2018-03-20T01:32:14.703Z,32.50
2018-03-20T01:32:46.469Z,32.50
2018-03-20T01:33:18.222Z,32.60
2018-03-20T01:33:49.948Z,32.50
2018-03-20T01:34:21.691Z,32.60
2018-03-20T01:34:53.440Z,32.70
2018-03-20T01:35:25.173Z,32.50
2018-03-20T01:35:56.923Z,32.50
2018-03-20T01:36:28.678Z,32.50
2018-03-20T01:37:00.424Z,32.50
2018-03-20T01:37:32.163Z,32.50
2018-03-20T01:38:03.915Z,32.50
2018-03-20T01:38:35.657Z,32.60
2018-03-20T01:39:07.424Z,32.50
2018-03-20T01:39:39.961Z,32.60
2018-03-20T01:40:11.721Z,32.60
2018-03-20T01:40:43.670Z,32.60
2018-03-20T01:41:15.450Z,32.50
2018-03-20T01:41:47.249Z,32.70
2018-03-20T01:42:18.996Z,32.60
2018-03-20T01:42:50.729Z,32.60
2018-03-20T01:43:22.468Z,32.70
2018-03-20T01:43:54.214Z,32.70
2018-03-20T01:44:25.964Z,32.70
2018-03-20T01:44:57.718Z,32.70
2018-03-20T01:45:29.458Z,32.70
2018-03-20T01:46:01.191Z,32.80
2018-03-20T01:46:33.144Z,32.90
2018-03-20T01:47:04.883Z,32.80
2018-03-20T01:47:36.628Z,32.90
2018-03-20T01:48:08.376Z,32.70
2018-03-20T01:48:40.125Z,32.60
2018-03-20T01:49:11.864Z,32.80
2018-03-20T01:49:43.645Z,32.70
2018-03-20T01:50:15.356Z,32.60
2018-03-20T01:50:47.096Z,32.60
2018-03-20T01:51:18.843Z,32.40
2018-03-20T01:51:50.585Z,32.50
2018-03-20T01:52:22.324Z,32.50
2018-03-20T01:52:54.839Z,32.50
2018-03-20T01:53:26.646Z,33.20
2018-03-20T01:53:59.193Z,32.70
2018-03-20T01:54:30.930Z,32.60
2018-03-20T01:55:03.461Z,32.70
2018-03-20T01:55:35.213Z,32.70
2018-03-20T01:56:06.998Z,32.90
2018-03-20T01:56:39.500Z,32.80
2018-03-20T01:57:11.265Z,32.80
2018-03-20T01:57:43.024Z,32.70
2018-03-20T01:58:15.575Z,33.30
2018-03-20T01:58:47.335Z,32.60
2018-03-20T01:59:19.066Z,32.90
2018-03-20T01:59:51.605Z,32.70
2018-03-20T02:00:23.367Z,32.80
2018-03-20T02:00:55.103Z,32.70
2018-03-20T02:01:26.858Z,32.60
2018-03-20T02:01:58.584Z,32.70
2018-03-20T02:02:30.333Z,32.60
2018-03-20T02:03:02.094Z,32.60
2018-03-20T02:03:33.843Z,32.70
2018-03-20T02:04:05.599Z,32.70
2018-03-20T02:04:38.140Z,33.00
2018-03-20T02:05:09.908Z,33.00
2018-03-20T02:05:42.436Z,32.80
2018-03-20T02:06:14.200Z,32.70
2018-03-20T02:06:45.953Z,32.70
2018-03-20T02:07:17.698Z,32.80
2018-03-20T02:07:49.452Z,32.80
2018-03-20T02:08:21.959Z,32.60
2018-03-20T02:08:53.704Z,32.60
2018-03-20T02:09:25.477Z,32.70
2018-03-20T02:09:57.244Z,32.80
2018-03-20T02:10:28.993Z,32.80
2018-03-20T02:11:01.504Z,32.90
2018-03-20T02:11:33.244Z,32.90
2018-03-20T02:12:04.996Z,32.90
2018-03-20T02:12:36.739Z,32.90
2018-03-20T02:13:08.680Z,32.80
2018-03-20T02:13:40.439Z,32.70
2018-03-20T02:14:12.275Z,32.70
2018-03-20T02:14:44.186Z,32.80
2018-03-20T02:15:16.721Z,32.80
2018-03-20T02:15:48.463Z,32.80
2018-03-20T02:16:20.417Z,32.80
2018-03-20T02:16:52.164Z,32.80
2018-03-20T02:17:23.916Z,32.80
2018-03-20T02:17:56.440Z,33.00
2018-03-20T02:18:28.168Z,32.80
2018-03-20T02:18:59.917Z,32.80
2018-03-20T02:19:31.656Z,32.70
2018-03-20T02:20:03.400Z,32.60
2018-03-20T02:20:35.156Z,32.80
2018-03-20T02:21:06.946Z,32.60
2018-03-20T02:21:38.692Z,32.70
2018-03-20T02:22:10.439Z,32.80
2018-03-20T02:22:42.960Z,32.70
2018-03-20T02:23:14.723Z,32.70
2018-03-20T02:23:46.492Z,32.70
2018-03-20T02:24:19.012Z,32.80
2018-03-20T02:24:50.755Z,32.80
2018-03-20T02:25:22.519Z,32.80
2018-03-20T02:25:54.260Z,32.80
2018-03-20T02:26:26.005Z,32.70
2018-03-20T02:26:57.757Z,32.80
2018-03-20T02:27:29.536Z,33.00
2018-03-20T02:28:02.063Z,32.30
2018-03-20T02:28:33.810Z,32.70
2018-03-20T02:29:05.575Z,32.90
2018-03-20T02:29:38.094Z,33.50
2018-03-20T02:30:09.851Z,32.90
2018-03-20T02:30:41.649Z,32.90
2018-03-20T02:31:14.191Z,32.90
2018-03-20T02:31:46.243Z,32.90
2018-03-20T02:32:18.019Z,32.80
2018-03-20T02:32:50.031Z,32.80
2018-03-20T02:33:22.104Z,32.80
2018-03-20T02:33:54.613Z,32.80
2018-03-20T02:34:26.378Z,32.80
2018-03-20T02:34:58.245Z,32.70
2018-03-20T02:35:30.029Z,32.50
2018-03-20T02:36:01.830Z,32.60
2018-03-20T02:36:33.629Z,32.70
2018-03-20T02:37:05.575Z,32.50
2018-03-20T02:37:37.365Z,32.80
2018-03-20T02:38:09.163Z,32.80
2018-03-20T02:38:40.946Z,32.60
2018-03-20T02:39:12.732Z,32.60
2018-03-20T02:39:44.482Z,32.60
2018-03-20T02:40:16.223Z,32.70
2018-03-20T02:40:48.040Z,32.80
2018-03-20T02:41:19.815Z,32.60
2018-03-20T02:41:51.588Z,32.70
2018-03-20T02:42:23.609Z,32.60
2018-03-20T02:42:55.356Z,32.70
2018-03-20T02:43:27.936Z,32.60
2018-03-20T02:43:59.926Z,32.60
2018-03-20T02:44:31.680Z,32.50
2018-03-20T02:45:03.434Z,32.50
2018-03-20T02:45:35.209Z,32.60
2018-03-20T02:46:07.061Z,32.60
2018-03-20T02:46:38.869Z,32.60
2018-03-20T02:47:10.658Z,32.50
2018-03-20T02:47:42.463Z,32.40
2018-03-20T02:48:14.207Z,32.50
2018-03-20T02:48:45.982Z,32.50
2018-03-20T02:49:18.726Z,32.40
2018-03-20T02:49:50.771Z,32.40
2018-03-20T02:50:22.522Z,32.40
2018-03-20T02:50:54.297Z,32.40
2018-03-20T02:51:26.078Z,32.40
2018-03-20T02:51:57.858Z,32.40
2018-03-20T02:52:30.369Z,32.80
2018-03-20T02:53:02.124Z,32.80
2018-03-20T02:53:33.883Z,32.80
2018-03-20T02:54:05.962Z,32.60
2018-03-20T02:54:38.476Z,32.50
2018-03-20T02:55:10.229Z,32.50
2018-03-20T02:55:42.214Z,32.50
2018-03-20T02:56:14.178Z,32.60
2018-03-20T02:56:46.713Z,32.70
2018-03-20T02:57:18.477Z,32.70
2018-03-20T02:57:50.993Z,32.60
2018-03-20T02:58:22.763Z,32.60
2018-03-20T02:58:54.717Z,32.60
2018-03-20T02:59:27.315Z,32.60
2018-03-20T02:59:59.052Z,32.40
2018-03-20T03:00:30.795Z,32.60
2018-03-20T03:01:03.312Z,32.50
2018-03-20T03:01:35.089Z,32.50
2018-03-20T03:02:07.586Z,32.60
2018-03-20T03:02:39.339Z,32.60
2018-03-20T03:03:11.380Z,32.50
2018-03-20T03:03:43.433Z,32.50
2018-03-20T03:04:15.157Z,32.30
2018-03-20T03:04:47.421Z,32.40
2018-03-20T03:05:19.192Z,32.40
2018-03-20T03:05:50.977Z,32.40
2018-03-20T03:06:22.728Z,32.40
2018-03-20T03:06:54.498Z,32.50
2018-03-20T03:07:27.043Z,32.30
2018-03-20T03:07:59.622Z,32.20
2018-03-20T03:08:32.161Z,32.40
2018-03-20T03:09:03.907Z,32.30
2018-03-20T03:09:35.846Z,32.40
2018-03-20T03:10:07.627Z,32.30
2018-03-20T03:10:39.427Z,32.40
2018-03-20T03:11:11.464Z,32.50
2018-03-20T03:11:43.227Z,32.40
2018-03-20T03:12:15.018Z,32.20
2018-03-20T03:12:46.945Z,32.20
2018-03-20T03:13:19.467Z,32.20
2018-03-20T03:13:51.210Z,32.20
2018-03-20T03:14:22.971Z,32.20
2018-03-20T03:14:54.723Z,32.00
2018-03-20T03:15:26.496Z,31.90
2018-03-20T03:15:59.059Z,32.10
2018-03-20T03:16:31.608Z,32.00
2018-03-20T03:17:03.371Z,32.00
2018-03-20T03:17:35.108Z,32.20
2018-03-20T03:18:07.629Z,31.90
2018-03-20T03:18:39.375Z,31.90
2018-03-20T03:19:11.132Z,32.00
2018-03-20T03:19:42.859Z,32.00
2018-03-20T03:20:14.608Z,32.00
2018-03-20T03:20:46.368Z,31.80
2018-03-20T03:21:18.149Z,31.90
2018-03-20T03:21:49.956Z,31.80
2018-03-20T03:22:21.716Z,31.80
2018-03-20T03:22:53.483Z,31.70
2018-03-20T03:23:26.000Z,31.60
2018-03-20T03:23:57.797Z,31.60
2018-03-20T03:24:29.534Z,31.60
2018-03-20T03:25:01.281Z,31.60
2018-03-20T03:25:33.790Z,31.80
2018-03-20T03:26:05.566Z,31.70
2018-03-20T03:26:37.299Z,31.70
2018-03-20T03:27:09.827Z,31.90
2018-03-20T03:27:41.614Z,31.80
2018-03-20T03:28:13.407Z,31.90
2018-03-20T03:28:45.159Z,31.80
2018-03-20T03:29:16.918Z,31.60
2018-03-20T03:29:48.727Z,31.60
2018-03-20T03:30:21.237Z,31.70
2018-03-20T03:30:52.985Z,31.70
2018-03-20T03:31:24.754Z,31.70
2018-03-20T03:31:56.558Z,31.60
2018-03-20T03:32:28.301Z,32.40
2018-03-20T03:33:00.104Z,31.80
2018-03-20T03:33:32.692Z,31.90
2018-03-20T03:34:05.212Z,31.70
2018-03-20T03:34:37.042Z,31.60
2018-03-20T03:35:08.797Z,31.40
2018-03-20T03:35:40.618Z,31.50
2018-03-20T03:36:12.399Z,31.50
2018-03-20T03:36:44.145Z,31.50
2018-03-20T03:37:16.670Z,31.00
2018-03-20T03:37:48.411Z,31.50
2018-03-20T03:38:20.162Z,31.40
2018-03-20T03:38:51.896Z,31.70
2018-03-20T03:39:23.715Z,31.70
2018-03-20T03:39:56.375Z,31.60
2018-03-20T03:40:28.405Z,31.60
2018-03-20T03:41:00.177Z,31.60
2018-03-20T03:41:31.950Z,31.80
2018-03-20T03:42:03.767Z,31.80
2018-03-20T03:42:35.544Z,31.90
2018-03-20T03:43:07.301Z,31.60
2018-03-20T03:43:39.061Z,31.40
2018-03-20T03:44:10.812Z,31.40
2018-03-20T03:44:43.329Z,31.00
2018-03-20T03:45:15.072Z,31.30
2018-03-20T03:45:46.848Z,31.50
2018-03-20T03:46:18.608Z,31.60
2018-03-20T03:46:50.377Z,31.60
2018-03-20T03:47:22.892Z,31.50
2018-03-20T03:47:54.640Z,31.50
2018-03-20T03:48:26.426Z,31.50
2018-03-20T03:48:59.006Z,31.50
2018-03-20T03:49:31.513Z,31.40
2018-03-20T03:50:03.331Z,31.30
2018-03-20T03:50:35.091Z,31.00
2018-03-20T03:51:06.842Z,31.40
2018-03-20T03:51:38.611Z,31.60
2018-03-20T03:52:10.340Z,31.20
2018-03-20T03:52:42.310Z,31.30
2018-03-20T03:53:14.823Z,31.60
2018-03-20T03:53:46.583Z,31.20
2018-03-20T03:54:18.333Z,31.40
2018-03-20T03:54:50.083Z,31.50
2018-03-20T03:55:21.876Z,31.30
2018-03-20T03:55:53.663Z,31.20
2018-03-20T03:56:25.829Z,31.10
2018-03-20T03:56:57.607Z,31.20
2018-03-20T03:57:29.351Z,31.00
2018-03-20T03:58:01.119Z,31.00
2018-03-20T03:58:32.901Z,31.10
2018-03-20T03:59:04.745Z,31.10
2018-03-20T03:59:36.530Z,31.60
2018-03-20T04:00:09.060Z,31.00
2018-03-20T04:00:40.844Z,31.00
2018-03-20T04:01:12.602Z,31.20
2018-03-20T04:01:44.357Z,31.30
2018-03-20T04:02:16.168Z,31.30
2018-03-20T04:02:47.912Z,31.40
2018-03-20T04:03:20.467Z,31.10
2018-03-20T04:03:52.264Z,31.10
2018-03-20T04:04:24.069Z,31.10
2018-03-20T04:04:56.082Z,31.20
2018-03-20T04:05:27.831Z,31.10
2018-03-20T04:05:59.585Z,31.20
2018-03-20T04:06:31.338Z,31.20
2018-03-20T04:07:03.096Z,31.30
2018-03-20T04:07:34.850Z,31.20
2018-03-20T04:08:07.355Z,31.20
2018-03-20T04:08:39.105Z,31.10
2018-03-20T04:09:10.900Z,31.10
2018-03-20T04:09:43.416Z,31.40
2018-03-20T04:10:15.227Z,31.40
2018-03-20T04:10:46.992Z,31.20
2018-03-20T04:11:18.751Z,31.20
2018-03-20T04:11:50.508Z,31.20
2018-03-20T04:12:22.277Z,31.20
2018-03-20T04:12:54.057Z,31.20
2018-03-20T04:13:25.810Z,31.00
2018-03-20T04:13:58.322Z,31.20
2018-03-20T04:14:30.066Z,31.10
2018-03-20T04:15:01.816Z,31.10
2018-03-20T04:15:33.557Z,31.00
2018-03-20T04:16:05.295Z,31.00
2018-03-20T04:16:37.092Z,30.90
2018-03-20T04:17:08.847Z,31.00
2018-03-20T04:17:41.376Z,31.10
2018-03-20T04:18:13.149Z,31.10
2018-03-20T04:18:45.070Z,31.20
2018-03-20T04:19:17.045Z,31.00
2018-03-20T04:19:48.803Z,30.90
2018-03-20T04:20:21.304Z,31.00
2018-03-20T04:20:53.081Z,30.80
2018-03-20T04:21:24.836Z,31.20
2018-03-20T04:21:56.580Z,31.10
2018-03-20T04:22:28.317Z,31.20
2018-03-20T04:23:00.078Z,31.70
2018-03-20T04:23:31.812Z,31.00
2018-03-20T04:24:03.563Z,30.90
2018-03-20T04:24:36.098Z,31.00
2018-03-20T04:25:07.843Z,31.00
2018-03-20T04:25:39.587Z,31.00
2018-03-20T04:26:11.333Z,31.10
2018-03-20T04:26:43.116Z,31.00
2018-03-20T04:27:15.641Z,31.00
2018-03-20T04:27:47.376Z,30.90
2018-03-20T04:28:19.122Z,30.70
2018-03-20T04:28:51.125Z,30.70
2018-03-20T04:29:23.619Z,30.80
2018-03-20T04:29:55.411Z,30.70
2018-03-20T04:30:27.170Z,30.60
2018-03-20T04:30:58.931Z,30.80
2018-03-20T04:31:30.711Z,30.80
2018-03-20T04:32:02.512Z,30.90
2018-03-20T04:32:35.071Z,30.90
2018-03-20T04:33:06.849Z,30.90
2018-03-20T04:33:38.589Z,30.90
2018-03-20T04:34:10.334Z,30.70
2018-03-20T04:34:42.100Z,30.80
2018-03-20T04:35:13.843Z,30.80
2018-03-20T04:35:45.648Z,30.80
2018-03-20T04:36:17.623Z,30.70
2018-03-20T04:36:49.406Z,30.80
2018-03-20T04:37:21.112Z,30.70
2018-03-20T04:37:52.871Z,30.90
2018-03-20T04:38:24.632Z,30.90
2018-03-20T04:38:56.587Z,30.90
2018-03-20T04:39:28.328Z,30.80
2018-03-20T04:40:00.078Z,30.90
2018-03-20T04:40:31.840Z,30.90
2018-03-20T04:41:04.367Z,30.70
2018-03-20T04:41:36.116Z,30.70
2018-03-20T04:42:07.869Z,30.80
2018-03-20T04:42:39.608Z,30.90
2018-03-20T04:43:11.522Z,30.90
2018-03-20T04:43:44.013Z,30.90
2018-03-20T04:44:15.759Z,30.90
2018-03-20T04:44:47.541Z,31.00
2018-03-20T04:45:20.051Z,30.70
2018-03-20T04:45:51.836Z,30.70
2018-03-20T04:46:23.597Z,30.70
2018-03-20T04:46:56.109Z,30.70
2018-03-20T04:47:27.877Z,30.70
2018-03-20T04:47:59.663Z,30.70
2018-03-20T04:48:31.410Z,30.60
2018-03-20T04:49:03.151Z,30.50
2018-03-20T04:49:34.914Z,30.80
2018-03-20T04:50:06.646Z,31.00
2018-03-20T04:50:38.383Z,30.90
2018-03-20T04:51:10.136Z,30.90
2018-03-20T04:51:41.894Z,30.90
2018-03-20T04:52:13.623Z,30.90
2018-03-20T04:52:45.374Z,30.70
2018-03-20T04:53:17.117Z,30.70
2018-03-20T04:53:48.881Z,30.70
2018-03-20T04:54:20.631Z,30.70
2018-03-20T04:54:52.391Z,30.50
2018-03-20T04:55:24.134Z,30.70
2018-03-20T04:55:55.878Z,30.80
2018-03-20T04:56:27.625Z,30.90
2018-03-20T04:56:59.394Z,30.80
2018-03-20T04:57:31.151Z,30.70
2018-03-20T04:58:03.659Z,30.70
2018-03-20T04:58:35.396Z,30.60
2018-03-20T04:59:07.159Z,30.70
2018-03-20T04:59:38.931Z,30.70
2018-03-20T05:00:10.677Z,30.50
2018-03-20T05:00:42.637Z,31.20
2018-03-20T05:01:15.140Z,30.60
2018-03-20T05:01:46.893Z,30.60
2018-03-20T05:02:18.659Z,31.10
2018-03-20T05:02:50.409Z,30.60
2018-03-20T05:03:23.655Z,30.20
2018-03-20T05:03:55.424Z,30.10
2018-03-20T05:04:27.180Z,30.00
2018-03-20T05:04:58.924Z,30.00
2018-03-20T05:05:30.684Z,29.90
2018-03-20T05:06:03.197Z,30.40
2018-03-20T05:06:34.944Z,29.90
2018-03-20T05:07:06.701Z,30.00
2018-03-20T05:07:38.443Z,29.90
2018-03-20T05:08:10.181Z,29.80
2018-03-20T05:08:41.918Z,29.70
2018-03-20T05:09:13.747Z,29.70
2018-03-20T05:09:45.490Z,29.70
2018-03-20T05:10:17.251Z,29.70
2018-03-20T05:10:48.998Z,29.70
2018-03-20T05:11:20.774Z,29.70
2018-03-20T05:11:52.514Z,29.60
2018-03-20T05:12:24.288Z,29.50
2018-03-20T05:12:56.790Z,29.40
2018-03-20T05:13:28.544Z,29.40
2018-03-20T05:14:00.314Z,29.40
2018-03-20T05:14:32.049Z,29.30
2018-03-20T05:15:03.807Z,29.30
2018-03-20T05:15:35.565Z,29.20
2018-03-20T05:16:07.306Z,29.20
2018-03-20T05:16:39.052Z,29.20
2018-03-20T05:17:11.589Z,29.20
2018-03-20T05:17:43.332Z,29.20
2018-03-20T05:18:15.136Z,29.10
2018-03-20T05:18:46.878Z,29.20
2018-03-20T05:19:19.607Z,29.10
2018-03-20T05:19:51.464Z,29.10
2018-03-20T05:20:23.215Z,29.10
2018-03-20T05:20:55.718Z,29.00
2018-03-20T05:21:27.466Z,29.00
2018-03-20T05:21:59.220Z,29.10
2018-03-20T05:22:30.952Z,29.10
2018-03-20T05:24:18.777Z,29.00
2018-03-20T05:24:51.272Z,29.00
2018-03-20T05:25:23.043Z,29.00
2018-03-20T05:25:54.798Z,29.00
2018-03-20T05:26:27.302Z,29.30
2018-03-20T05:26:59.041Z,29.20
2018-03-20T05:27:30.881Z,29.20
2018-03-20T05:28:02.776Z,29.10
2018-03-20T05:28:34.517Z,29.60
2018-03-20T05:29:06.548Z,29.10
2018-03-20T05:29:38.288Z,29.20
2018-03-20T05:30:10.063Z,29.30
2018-03-20T05:30:41.776Z,29.40
2018-03-20T05:31:13.529Z,29.40
2018-03-20T05:31:45.305Z,29.40
2018-03-20T05:32:17.044Z,29.40
2018-03-20T05:32:48.791Z,29.30
2018-03-20T05:33:21.304Z,29.50
2018-03-20T05:33:53.046Z,29.50
2018-03-20T05:34:24.911Z,29.40
2018-03-20T05:34:56.642Z,29.40
2018-03-20T05:35:28.390Z,29.40
2018-03-20T05:36:00.140Z,29.40
2018-03-20T05:36:31.891Z,29.40
2018-03-20T05:37:03.651Z,29.30
2018-03-20T05:37:35.436Z,29.20
2018-03-20T05:38:07.997Z,29.30
2018-03-20T05:38:40.513Z,29.30
2018-03-20T05:39:12.304Z,29.20
2018-03-20T05:39:44.846Z,29.40
2018-03-20T05:40:16.789Z,29.30
2018-03-20T05:40:48.594Z,29.40
2018-03-20T05:41:20.361Z,29.50
2018-03-20T05:41:52.161Z,29.70
2018-03-20T05:42:24.060Z,29.70
2018-03-20T05:42:55.810Z,29.90
2018-03-20T05:43:27.556Z,30.00
2018-03-20T05:43:59.373Z,30.00
2018-03-20T05:44:31.110Z,30.00
2018-03-20T05:45:02.888Z,30.00
2018-03-20T05:45:34.959Z,30.00
2018-03-20T05:46:06.712Z,32.10
2018-03-20T05:46:38.465Z,39.90
2018-03-20T05:47:10.979Z,39.50
2018-03-20T05:47:42.724Z,39.50
2018-03-20T05:48:14.492Z,38.70
2018-03-20T05:48:46.220Z,37.60
2018-03-20T05:49:17.983Z,36.70
2018-03-20T05:49:49.719Z,36.10
2018-03-20T05:50:21.472Z,35.60
2018-03-20T05:50:53.236Z,35.00
2018-03-20T05:51:25.769Z,34.90
2018-03-20T05:51:57.540Z,34.30
2018-03-20T05:52:30.079Z,33.60
2018-03-20T05:53:01.854Z,33.60
2018-03-20T05:53:33.599Z,33.20
2018-03-20T05:54:06.149Z,32.80
2018-03-20T05:54:37.876Z,32.80
2018-03-20T05:55:09.621Z,32.80
2018-03-20T05:55:41.360Z,32.90
2018-03-20T05:56:13.112Z,32.30
2018-03-20T05:56:44.885Z,32.10
2018-03-20T05:57:17.422Z,31.70
2018-03-20T05:57:49.164Z,31.70
2018-03-20T05:58:20.914Z,31.50
2018-03-20T05:58:52.654Z,31.70
2018-03-20T05:59:24.403Z,31.40
2018-03-20T05:59:56.155Z,31.30
2018-03-20T06:00:27.895Z,32.00
2018-03-20T06:00:59.655Z,31.40
2018-03-20T06:01:32.186Z,31.20
2018-03-20T06:02:03.928Z,31.20
2018-03-20T06:02:35.683Z,31.20
2018-03-20T06:03:07.412Z,31.20
2018-03-20T06:03:39.173Z,31.20
2018-03-20T06:04:10.935Z,31.20
2018-03-20T06:04:43.453Z,31.00
2018-03-20T06:05:15.222Z,30.90
2018-03-20T06:05:46.982Z,30.70
2018-03-20T06:06:18.714Z,30.80
2018-03-20T06:06:50.653Z,31.50
2018-03-20T06:07:22.420Z,30.80
2018-03-20T06:07:54.999Z,30.70
2018-03-20T06:08:27.520Z,30.60
2018-03-20T06:08:59.262Z,30.60
2018-03-20T06:09:31.804Z,31.40
2018-03-20T06:10:03.571Z,30.70
2018-03-20T06:10:35.302Z,30.70
2018-03-20T06:11:07.053Z,30.60
2018-03-20T06:11:38.801Z,30.50
2018-03-20T06:12:10.543Z,30.60
2018-03-20T06:12:42.298Z,30.50
2018-03-20T06:13:14.049Z,30.40
2018-03-20T06:13:45.781Z,30.40
2018-03-20T06:14:17.528Z,30.40
2018-03-20T06:14:49.279Z,30.20
2018-03-20T06:15:21.016Z,30.20
2018-03-20T06:15:52.833Z,30.20
2018-03-20T06:16:25.316Z,30.20
2018-03-20T06:16:57.071Z,30.20
2018-03-20T06:17:28.992Z,30.10
2018-03-20T06:18:00.740Z,30.10
2018-03-20T06:18:32.501Z,30.00
2018-03-20T06:19:04.275Z,30.00
2018-03-20T06:19:36.024Z,30.00
2018-03-20T06:20:08.528Z,29.90
2018-03-20T06:20:40.291Z,30.00
2018-03-20T06:21:12.048Z,29.90
2018-03-20T06:21:43.788Z,30.00
2018-03-20T06:22:15.527Z,30.00
2018-03-20T06:22:47.309Z,30.30
2018-03-20T06:23:19.051Z,30.20
2018-03-20T06:23:50.786Z,30.20
2018-03-20T06:24:22.645Z,30.00
2018-03-20T06:24:55.170Z,30.00
2018-03-20T06:25:26.923Z,30.00
2018-03-20T06:25:58.705Z,29.90
2018-03-20T06:26:31.226Z,30.00
2018-03-20T06:27:02.967Z,30.00
2018-03-20T06:27:34.740Z,29.80
2018-03-20T06:28:06.495Z,29.80
2018-03-20T06:28:38.229Z,30.00
2018-03-20T06:29:09.975Z,30.00
2018-03-20T06:29:43.220Z,29.90
2018-03-20T06:30:14.972Z,29.90
2018-03-20T06:30:46.714Z,29.90
2018-03-20T06:31:18.466Z,30.00
2018-03-20T06:31:50.232Z,29.90
2018-03-20T06:32:21.964Z,30.00
2018-03-20T06:32:53.741Z,30.00
2018-03-20T06:33:26.270Z,30.00
2018-03-20T06:33:58.005Z,30.00
2018-03-20T06:34:29.759Z,30.00
2018-03-20T06:35:01.525Z,30.10
2018-03-20T06:35:34.057Z,30.10
2018-03-20T06:36:05.800Z,30.10
2018-03-20T06:36:37.554Z,30.20
2018-03-20T06:37:09.303Z,30.20
2018-03-20T06:37:41.063Z,30.30
2018-03-20T06:38:12.804Z,30.10
2018-03-20T06:38:44.614Z,30.10
2018-03-20T06:39:16.370Z,30.70
2018-03-20T06:39:48.124Z,30.10
2018-03-20T06:40:19.893Z,30.10
2018-03-20T06:40:51.632Z,30.20
2018-03-20T06:41:23.413Z,30.10
2018-03-20T06:41:55.162Z,30.50
2018-03-20T06:42:26.938Z,30.00
2018-03-20T06:42:58.716Z,30.10
2018-03-20T06:43:30.730Z,30.00
2018-03-20T06:44:03.396Z,30.30
2018-03-20T06:44:35.149Z,30.30
2018-03-20T06:45:07.733Z,30.00
2018-03-20T06:45:39.539Z,29.90
2018-03-20T06:46:12.288Z,30.10
2018-03-20T06:46:44.298Z,30.20
2018-03-20T06:47:16.032Z,31.00
2018-03-20T06:47:49.296Z,30.00
2018-03-20T06:48:21.244Z,30.00
2018-03-20T06:48:53.001Z,31.20
2018-03-20T06:49:24.741Z,30.50
2018-03-20T06:49:56.498Z,31.00
2018-03-20T06:50:28.275Z,30.40
2018-03-20T06:51:00.319Z,30.60
2018-03-20T06:51:32.248Z,30.50
2018-03-20T06:52:04.013Z,31.00